Time;durP1;ratioP1;P1;durP2;ratioP2;P2;SDS_P1;SDS_P2;PMS_P1;PMS_P2;Temp;Humidity;BMP_temperature;BMP_pressure;BME280_temperature;BME280_humidity;BME280_pressure;Samples;Min_cycle;Max_cycle;Signal;HPM_P1;HPM_P2
2023/12/21 00:00:27;;;;;;;14.13;10.18;;;;;;;10.16;67.39;99386.03;1780934;80;21299;-83
2023/12/21 00:03:32;;;;;;;18.42;12.58;;;;;;;10.23;67.18;99378.23;1781073;80;21295;-83
2023/12/21 00:06:38;;;;;;;17.35;12.00;;;;;;;10.49;66.46;99374.92;1780951;80;21271;-83
2023/12/21 00:09:45;;;;;;;18.23;12.80;;;;;;;10.46;66.66;99375.31;1780814;80;21296;-83
2023/12/21 00:12:50;;;;;;;20.35;14.35;;;;;;;10.55;66.36;99377.91;1780640;80;21246;-83
2023/12/21 00:15:57;;;;;;;21.10;14.15;;;;;;;10.04;68.23;99372.07;1780820;80;21308;-82
2023/12/21 00:19:03;;;;;;;18.37;12.30;;;;;;;10.08;68.02;99354.77;1780547;80;21309;-83
2023/12/21 00:22:09;;;;;;;19.80;12.98;;;;;;;10.11;68.27;99348.89;1780793;80;21265;-83
2023/12/21 00:25:07;;;;;;;17.93;12.63;;;;;;;10.18;68.00;99353.39;1801782;79;21844;-83
2023/12/21 00:28:13;;;;;;;17.77;12.33;;;;;;;9.97;68.80;99352.02;1802798;79;21250;-83
2023/12/21 00:31:17;;;;;;;13.62;11.12;;;;;;;10.06;68.70;99349.48;1780653;80;21331;-83
2023/12/21 00:34:23;;;;;;;15.78;11.25;;;;;;;10.02;68.58;99341.38;1780715;80;21284;-83
2023/12/21 00:37:28;;;;;;;16.10;11.53;;;;;;;10.20;67.99;99338.15;1780782;80;21274;-83
2023/12/21 00:40:34;;;;;;;13.08;10.58;;;;;;;10.05;68.15;99327.83;1806927;79;21243;-83
2023/12/21 00:43:40;;;;;;;14.58;10.78;;;;;;;10.01;68.26;99323.27;1797357;79;21261;-83
2023/12/21 00:46:46;;;;;;;13.93;10.90;;;;;;;9.91;68.33;99324.97;1780855;80;21312;-83
2023/12/21 00:49:52;;;;;;;11.80;10.10;;;;;;;10.08;67.64;99322.83;1780736;80;21296;-83
2023/12/21 00:52:59;;;;;;;16.35;11.73;;;;;;;10.20;67.02;99317.66;1779330;80;21343;-83
2023/12/21 00:56:06;;;;;;;16.02;12.43;;;;;;;10.02;67.75;99308.59;1784023;80;21247;-83
2023/12/21 00:59:12;;;;;;;15.28;12.00;;;;;;;9.93;67.98;99301.06;1795048;79;21239;-82
2023/12/21 01:02:18;;;;;;;16.62;12.60;;;;;;;9.83;68.64;99295.05;1816075;79;21793;-83
2023/12/21 01:05:24;;;;;;;17.82;13.80;;;;;;;9.49;69.33;99302.60;1801701;79;21260;-82
2023/12/21 01:08:29;;;;;;;17.98;13.70;;;;;;;9.43;70.00;99294.67;1784070;80;21281;-83
2023/12/21 01:11:35;;;;;;;15.90;11.95;;;;;;;9.47;69.87;99290.52;1784039;80;21853;-83
2023/12/21 01:14:41;;;;;;;17.40;12.90;;;;;;;9.51;69.40;99283.33;1784221;79;21288;-83
2023/12/21 01:17:50;;;;;;;18.82;13.15;;;;;;;9.45;69.76;99276.20;1784166;80;21328;-83
2023/12/21 01:20:55;;;;;;;16.93;13.88;;;;;;;9.26;70.55;99271.39;1784002;80;21955;-82
2023/12/21 01:24:01;;;;;;;20.88;14.18;;;;;;;9.30;70.52;99274.58;1783997;80;21256;-83
2023/12/21 01:27:06;;;;;;;22.77;15.60;;;;;;;9.39;70.25;99268.80;1783907;80;21335;-83
2023/12/21 01:30:15;;;;;;;22.42;15.72;;;;;;;9.52;69.82;99259.08;1783056;80;21300;-83
2023/12/21 01:33:21;;;;;;;21.10;14.40;;;;;;;9.75;68.91;99247.42;1783780;80;21316;-83
2023/12/21 01:36:26;;;;;;;18.12;13.90;;;;;;;9.81;68.62;99251.25;1783991;79;21337;-83
2023/12/21 01:39:32;;;;;;;19.85;14.28;;;;;;;9.89;68.16;99247.02;1784330;80;21284;-83
2023/12/21 01:42:37;;;;;;;22.98;15.08;;;;;;;9.87;68.32;99243.62;1784055;80;21827;-83
2023/12/21 01:45:43;;;;;;;19.42;15.53;;;;;;;10.11;67.60;99246.43;1783219;80;21641;-82
2023/12/21 01:48:48;;;;;;;20.40;14.55;;;;;;;9.55;69.07;99243.16;1781608;80;21319;-82
2023/12/21 01:51:55;;;;;;;22.20;13.83;;;;;;;9.37;70.03;99235.94;1782903;80;21323;-83
2023/12/21 01:55:01;;;;;;;22.07;16.02;;;;;;;9.69;69.16;99231.80;1772505;80;21307;-83
2023/12/21 01:58:08;;;;;;;21.95;14.55;;;;;;;9.52;69.42;99223.06;1769262;81;22323;-83
2023/12/21 02:01:15;;;;;;;21.05;14.20;;;;;;;9.68;68.88;99218.67;1797194;79;21284;-82
2023/12/21 02:04:22;;;;;;;20.82;14.73;;;;;;;9.47;69.61;99213.25;1800919;79;21299;-83
2023/12/21 02:07:28;;;;;;;20.60;13.85;;;;;;;9.56;69.66;99215.34;1801137;79;22605;-83
2023/12/21 02:10:39;;;;;;;18.02;13.30;;;;;;;9.62;69.52;99220.00;1774751;79;21332;-82
2023/12/21 02:13:44;;;;;;;18.92;14.23;;;;;;;9.71;69.44;99211.47;1769644;81;21312;-83
2023/12/21 02:17:04;;;;;;;20.30;14.68;;;;;;;9.68;69.67;99213.74;1768008;81;22372;-83
2023/12/21 02:20:13;;;;;;;21.17;13.45;;;;;;;9.97;68.94;99212.70;1767861;81;21300;-83
2023/12/21 02:23:19;;;;;;;19.37;13.10;;;;;;;9.67;69.84;99206.59;1770666;81;22226;-83
2023/12/21 02:26:25;;;;;;;18.17;12.80;;;;;;;9.68;69.95;99213.22;1776954;79;21322;-83
2023/12/21 02:29:30;;;;;;;20.12;13.80;;;;;;;9.79;69.59;99203.66;1791664;79;21272;-83
2023/12/21 02:32:35;;;;;;;17.70;13.40;;;;;;;9.85;69.04;99198.77;1770289;81;21260;-83
2023/12/21 02:35:41;;;;;;;22.82;12.80;;;;;;;9.75;69.63;99203.73;1770275;81;21307;-82
2023/12/21 02:38:46;;;;;;;16.05;12.05;;;;;;;10.02;68.60;99206.16;1770487;81;21811;-83
2023/12/21 02:41:58;;;;;;;16.02;11.55;;;;;;;9.89;69.07;99200.06;1770447;81;21250;-83
2023/12/21 02:45:03;;;;;;;17.75;11.95;;;;;;;9.95;68.85;99199.78;1770114;81;21259;-83
2023/12/21 02:48:10;;;;;;;17.50;12.68;;;;;;;9.89;68.87;99195.97;1770466;81;21338;-83
2023/12/21 02:51:15;;;;;;;19.60;12.78;;;;;;;10.24;67.45;99193.27;1770479;81;21281;-83
2023/12/21 02:54:21;;;;;;;18.57;12.28;;;;;;;10.36;66.90;99192.20;1780770;79;21267;-83
2023/12/21 02:57:27;;;;;;;20.30;13.72;;;;;;;10.16;67.43;99181.09;1782265;79;21890;-83
2023/12/21 03:00:33;;;;;;;16.80;12.88;;;;;;;10.04;67.42;99177.25;1782597;79;21866;-83
2023/12/21 03:03:39;;;;;;;18.62;13.13;;;;;;;9.90;68.04;99170.33;1802023;79;21339;-83
2023/12/21 03:06:45;;;;;;;19.50;13.98;;;;;;;9.67;68.79;99161.02;1787692;79;21240;-83
2023/12/21 03:09:50;;;;;;;18.45;12.82;;;;;;;9.62;68.89;99170.33;1786989;79;21272;-83
2023/12/21 03:12:57;;;;;;;20.80;14.10;;;;;;;10.00;67.80;99160.41;1802078;79;21296;-83
2023/12/21 03:16:04;;;;;;;16.87;12.03;;;;;;;9.98;67.67;99154.31;1778156;79;21280;-83
2023/12/21 03:19:10;;;;;;;18.07;12.55;;;;;;;9.94;67.75;99165.32;1770581;81;22217;-83
2023/12/21 03:22:17;;;;;;;20.15;14.18;;;;;;;9.70;68.34;99159.80;1770547;81;21847;-83
2023/12/21 03:25:22;;;;;;;32.42;19.70;;;;;;;9.94;68.14;99160.70;1770397;81;21281;-82
2023/12/21 03:28:27;;;;;;;32.30;21.55;;;;;;;10.38;67.38;99169.06;1770266;81;21331;-83
2023/12/21 03:31:34;;;;;;;24.72;17.30;;;;;;;10.40;67.34;99166.15;1778010;79;21270;-83
2023/12/21 03:34:40;;;;;;;25.15;13.60;;;;;;;10.45;67.60;99160.39;1770305;81;21312;-83
2023/12/21 03:37:47;;;;;;;21.77;15.98;;;;;;;10.35;67.79;99159.92;1770197;81;21297;-83
2023/12/21 03:40:51;;;;;;;24.77;15.90;;;;;;;10.35;68.31;99159.05;1770521;81;21249;-83
2023/12/21 03:43:58;;;;;;;23.98;17.62;;;;;;;10.30;68.22;99167.86;1770646;81;21266;-83
2023/12/21 03:47:04;;;;;;;25.32;16.48;;;;;;;10.34;68.54;99165.05;1795921;79;21237;-83
2023/12/21 03:50:10;;;;;;;26.93;16.70;;;;;;;10.55;68.74;99153.17;1802107;79;21328;-83
2023/12/21 03:53:16;;;;;;;22.85;15.72;;;;;;;10.66;67.97;99148.47;1802035;79;21291;-83
2023/12/21 03:56:21;;;;;;;26.20;17.27;;;;;;;10.72;67.33;99152.27;1799523;79;21300;-83
2023/12/21 03:59:27;;;;;;;21.35;15.05;;;;;;;10.91;67.39;99163.79;1794403;80;21268;-83
2023/12/21 04:02:36;;;;;;;20.62;14.43;;;;;;;11.41;66.25;99165.67;1794640;80;21248;-83
2023/12/21 04:05:44;;;;;;;21.93;13.00;;;;;;;11.41;65.70;99162.94;1794707;80;21320;-83
2023/12/21 04:08:54;;;;;;;21.20;14.53;;;;;;;11.20;66.34;99157.14;1794477;80;21268;-83
2023/12/21 04:11:57;;;;;;;21.85;15.00;;;;;;;11.35;66.40;99162.95;1794825;80;21284;-83
2023/12/21 04:15:04;;;;;;;24.80;14.40;;;;;;;11.26;66.75;99159.03;1794895;80;21257;-83
2023/12/21 04:18:10;;;;;;;19.45;13.68;;;;;;;11.23;66.78;99152.59;1795027;80;21272;-82
2023/12/21 04:21:18;;;;;;;18.75;13.35;;;;;;;11.17;67.02;99144.39;1794481;80;21956;-82
2023/12/21 04:24:22;;;;;;;20.92;14.03;;;;;;;11.28;66.80;99141.02;1794557;80;21276;-83
2023/12/21 04:27:29;;;;;;;18.10;13.72;;;;;;;11.08;66.23;99153.84;1794605;80;21879;-82
2023/12/21 04:30:34;;;;;;;26.85;16.67;;;;;;;10.97;66.37;99149.83;1794539;80;21264;-83
2023/12/21 04:33:40;;;;;;;43.63;22.42;;;;;;;10.92;66.68;99158.66;1794546;80;21957;-83
2023/12/21 04:36:46;;;;;;;32.53;19.50;;;;;;;11.17;66.10;99151.23;1794780;80;21276;-83
2023/12/21 04:39:51;;;;;;;24.57;16.10;;;;;;;11.00;66.37;99148.87;1794820;80;21803;-83
2023/12/21 04:42:58;;;;;;;23.15;15.60;;;;;;;11.30;65.25;99141.67;1779102;80;21270;-83
2023/12/21 04:46:03;;;;;;;22.58;16.02;;;;;;;11.21;64.85;99139.66;1775830;81;21269;-83
2023/12/21 04:49:10;;;;;;;23.75;16.02;;;;;;;11.00;64.84;99131.08;1775765;81;22162;-83
2023/12/21 04:52:16;;;;;;;22.62;14.83;;;;;;;10.96;64.92;99124.37;1775634;81;21691;-83
2023/12/21 04:55:22;;;;;;;22.30;15.05;;;;;;;10.59;65.75;99120.80;1775581;81;21256;-82
2023/12/21 04:58:28;;;;;;;26.62;17.75;;;;;;;10.72;65.24;99129.02;1770633;80;21328;-83
2023/12/21 05:01:35;;;;;;;23.47;16.85;;;;;;;10.94;64.51;99136.55;1770251;81;21285;-84
2023/12/21 05:04:41;;;;;;;25.40;18.25;;;;;;;10.82;65.03;99133.59;1770462;81;21816;-83
2023/12/21 05:07:47;;;;;;;27.27;18.30;;;;;;;10.75;65.22;99132.72;1770495;81;21277;-83
2023/12/21 05:10:52;;;;;;;39.73;25.17;;;;;;;10.82;65.17;99134.97;1770494;81;22231;-83
2023/12/21 05:13:58;;;;;;;28.12;18.73;;;;;;;10.94;65.00;99128.34;1733549;82;21317;-83
2023/12/21 05:17:03;;;;;;;26.95;18.62;;;;;;;11.01;65.09;99127.85;1770298;81;21316;-83
2023/12/21 05:20:09;;;;;;;24.67;17.60;;;;;;;11.08;64.87;99130.58;1770247;81;21838;-82
2023/12/21 05:23:15;;;;;;;28.10;18.98;;;;;;;11.12;64.90;99131.86;1770040;81;21245;-83
2023/12/21 05:26:21;;;;;;;31.97;21.00;;;;;;;11.36;64.36;99135.88;1775570;79;21291;-83
2023/12/21 05:29:27;;;;;;;32.88;22.98;;;;;;;11.48;63.78;99145.16;1802138;79;21284;-83
2023/12/21 05:32:32;;;;;;;33.98;21.40;;;;;;;11.59;63.75;99129.45;1778918;79;21269;-83
2023/12/21 05:35:37;;;;;;;27.98;18.40;;;;;;;11.99;62.37;99124.78;1770414;81;21285;-82
2023/12/21 05:38:45;;;;;;;31.93;22.52;;;;;;;12.22;61.87;99118.81;1787743;79;21263;-83
2023/12/21 05:41:50;;;;;;;32.67;23.85;;;;;;;11.52;63.83;99116.28;1790316;79;21292;-83
2023/12/21 05:44:55;;;;;;;28.77;19.75;;;;;;;11.81;63.79;99109.53;1770155;81;21257;-83
2023/12/21 05:48:03;;;;;;;31.37;19.95;;;;;;;11.99;63.03;99105.59;1790757;79;21249;-83
2023/12/21 05:51:08;;;;;;;34.23;19.45;;;;;;;11.74;63.71;99093.61;1781661;79;21315;-83
2023/12/21 05:54:13;;;;;;;30.40;20.72;;;;;;;11.44;64.64;99096.81;1779792;79;21295;-83
2023/12/21 05:57:19;;;;;;;30.08;19.75;;;;;;;12.03;63.58;99088.20;1770681;81;21273;-83
2023/12/21 06:00:26;;;;;;;28.27;20.15;;;;;;;12.09;63.28;99088.73;1770456;81;21813;-83
2023/12/21 06:03:32;;;;;;;25.50;17.15;;;;;;;12.19;62.99;99080.89;1770381;81;21742;-82
2023/12/21 06:06:38;;;;;;;19.05;14.05;;;;;;;11.82;63.92;99072.02;1770269;81;21320;-83
2023/12/21 06:09:44;;;;;;;18.62;13.03;;;;;;;11.45;65.40;99070.27;1770392;81;21292;-83
2023/12/21 06:12:51;;;;;;;29.98;18.23;;;;;;;11.87;64.04;99071.70;1770280;81;21270;-83
2023/12/21 06:15:55;;;;;;;24.00;14.63;;;;;;;11.95;63.74;99074.22;1770233;81;21269;-83
2023/12/21 06:19:09;;;;;;;20.88;13.35;;;;;;;11.92;64.42;99073.27;1786451;79;21802;-83
2023/12/21 06:22:10;;;;;;;14.93;11.65;;;;;;;11.77;65.00;99060.33;1788149;79;21307;-83
2023/12/21 06:25:16;;;;;;;17.30;9.33;;;;;;;12.07;64.07;99054.36;1777046;79;21280;-83
2023/12/21 06:28:22;;;;;;;17.85;10.48;;;;;;;12.21;63.93;99056.83;1772479;79;21262;-82
2023/12/21 06:31:27;;;;;;;17.10;10.82;;;;;;;12.23;63.61;99067.06;1782612;79;21240;-83
2023/12/21 06:34:34;;;;;;;19.15;9.13;;;;;;;12.48;63.02;99065.78;1781228;79;21839;-83
2023/12/21 06:37:41;;;;;;;13.65;7.50;;;;;;;12.47;62.84;99057.78;1789837;79;22442;-83
2023/12/21 06:40:47;;;;;;;13.18;7.37;;;;;;;12.25;63.34;99055.87;1794870;79;21338;-83
2023/12/21 06:43:54;;;;;;;10.00;6.78;;;;;;;12.20;63.76;99048.83;1773695;79;21278;-83
2023/12/21 06:46:59;;;;;;;13.53;7.22;;;;;;;12.10;64.21;99045.19;1787761;79;21308;-83
2023/12/21 06:50:05;;;;;;;14.65;7.17;;;;;;;12.19;64.15;99044.41;1781147;79;21304;-82
2023/12/21 06:53:15;;;;;;;10.23;6.33;;;;;;;11.73;65.43;99038.52;1772033;79;21292;-83
2023/12/21 06:56:19;;;;;;;10.85;6.37;;;;;;;12.39;63.80;99047.05;1784379;79;21260;-82
2023/12/21 06:59:26;;;;;;;12.47;7.42;;;;;;;12.94;62.24;99052.84;1774177;79;21638;-83
2023/12/21 07:02:32;;;;;;;10.18;7.00;;;;;;;12.79;62.25;99055.87;1739955;80;22287;-83
2023/12/21 07:05:39;;;;;;;17.12;7.10;;;;;;;12.59;62.87;99055.17;1772086;79;21972;-83
2023/12/21 07:08:46;;;;;;;11.25;6.53;;;;;;;12.60;62.79;99049.45;1701064;83;21358;-83
2023/12/21 07:11:55;;;;;;;10.45;6.22;;;;;;;12.38;63.30;99053.61;1704719;83;21308;-83
2023/12/21 07:15:04;;;;;;;13.60;8.40;;;;;;;12.48;63.35;99042.47;1702820;82;22576;-83
2023/12/21 07:18:11;;;;;;;16.25;10.72;;;;;;;12.38;63.48;99038.53;1724326;82;21311;-83
2023/12/21 07:21:19;;;;;;;18.77;13.75;;;;;;;12.42;62.82;99032.89;1720067;81;21328;-83
2023/12/21 07:24:28;;;;;;;21.60;14.10;;;;;;;12.39;63.42;99029.23;1713507;82;21340;-83
2023/12/21 07:27:35;;;;;;;24.77;15.98;;;;;;;12.40;63.12;99022.68;1715322;82;21325;-83
2023/12/21 07:30:41;;;;;;;32.93;16.42;;;;;;;12.43;63.28;99015.40;1709920;82;22367;-83
2023/12/21 07:33:47;;;;;;;24.82;16.45;;;;;;;12.50;63.31;99017.55;1704021;81;21356;-83
2023/12/21 07:36:53;;;;;;;28.07;16.48;;;;;;;12.32;63.81;99024.30;1710168;82;21303;-83
2023/12/21 07:39:59;;;;;;;27.85;17.30;;;;;;;12.63;63.13;99021.59;1711396;82;21346;-83
2023/12/21 07:43:04;;;;;;;30.27;17.77;;;;;;;12.55;63.16;99032.81;1710935;83;21343;-83
2023/12/21 07:46:13;;;;;;;25.23;15.83;;;;;;;12.80;62.64;99032.89;1691109;82;111856;-83
2023/12/21 07:49:19;;;;;;;28.02;14.43;;;;;;;12.72;62.42;99029.03;1701071;83;21290;-83
2023/12/21 07:52:25;;;;;;;15.80;10.60;;;;;;;12.89;61.65;99026.58;1695727;83;21299;-83
2023/12/21 07:55:33;;;;;;;14.70;9.30;;;;;;;12.73;61.89;99024.69;1698464;83;21284;-83
2023/12/21 07:58:41;;;;;;;16.42;9.63;;;;;;;12.69;62.09;99022.07;1697279;83;21334;-83
2023/12/21 08:01:47;;;;;;;15.08;9.15;;;;;;;12.60;62.68;99017.07;1694195;82;21345;-83
2023/12/21 08:04:54;;;;;;;15.28;9.08;;;;;;;12.88;62.16;99012.02;1709429;83;21303;-83
2023/12/21 08:08:02;;;;;;;12.53;8.90;;;;;;;12.61;62.80;99007.77;1694984;82;21850;-82
2023/12/21 08:11:11;;;;;;;26.42;9.68;;;;;;;12.56;63.24;99002.11;1709178;83;21865;-83
2023/12/21 08:14:19;;;;;;;22.17;10.78;;;;;;;12.39;64.07;99000.44;1704536;82;21350;-83
2023/12/21 08:17:27;;;;;;;23.20;11.93;;;;;;;12.60;63.53;99004.73;1701693;83;21332;-83
2023/12/21 08:20:36;;;;;;;18.57;10.32;;;;;;;12.55;63.55;98998.53;1703601;83;21302;-83
2023/12/21 08:23:44;;;;;;;22.67;12.40;;;;;;;12.72;63.16;98982.39;1708901;82;21346;-83
2023/12/21 08:26:54;;;;;;;21.23;12.45;;;;;;;12.64;63.19;98980.75;1658360;86;21340;-83
2023/12/21 08:30:03;;;;;;;20.55;12.30;;;;;;;12.55;63.36;98979.33;1658796;84;21357;-83
2023/12/21 08:33:09;;;;;;;36.17;14.18;;;;;;;12.41;64.13;98975.00;1696094;82;21311;-83
2023/12/21 08:36:16;;;;;;;24.95;13.95;;;;;;;12.52;63.87;98976.52;1664699;84;21358;-82
2023/12/21 08:39:28;;;;;;;21.45;11.78;;;;;;;12.94;62.60;98964.49;1669086;84;21326;-83
2023/12/21 08:42:34;;;;;;;26.23;10.58;;;;;;;12.71;62.95;98954.66;1711965;81;21897;-83
2023/12/21 08:45:40;;;;;;;27.95;12.23;;;;;;;12.92;62.70;98943.27;1711614;83;21327;-83
2023/12/21 08:48:45;;;;;;;18.73;9.83;;;;;;;12.90;62.51;98938.55;1677350;84;21341;-82
2023/12/21 08:51:53;;;;;;;24.95;10.38;;;;;;;12.68;63.35;98925.75;1684735;83;21366;-83
2023/12/21 08:55:00;;;;;;;31.07;11.73;;;;;;;12.86;62.99;98910.41;1710652;81;21763;-83
2023/12/21 08:58:08;;;;;;;27.32;9.70;;;;;;;12.85;63.31;98905.47;1712285;81;21873;-82
2023/12/21 09:01:14;;;;;;;30.68;11.30;;;;;;;13.05;63.11;98908.02;1691234;82;21298;-83
2023/12/21 09:04:20;;;;;;;34.85;11.20;;;;;;;13.19;62.95;98901.31;1725131;82;21305;-83
2023/12/21 09:07:25;;;;;;;31.20;12.37;;;;;;;13.17;63.33;98899.85;1707230;83;22602;-83
2023/12/21 09:10:32;;;;;;;33.45;11.40;;;;;;;13.49;62.41;98911.58;1726395;81;21330;-83
2023/12/21 09:13:38;;;;;;;35.20;15.68;;;;;;;13.66;61.94;98914.55;1700665;83;21597;-83
2023/12/21 09:16:44;;;;;;;29.00;12.40;;;;;;;13.83;61.05;98910.09;1711341;81;21657;-82
2023/12/21 09:23:59;;;;;;;33.15;15.08;;;;;;;13.59;61.66;98917.91;1699307;83;22544;-82
2023/12/21 09:27:35;;;;;;;47.10;22.87;;;;;;;13.57;61.58;98914.56;1707553;81;21334;-83
2023/12/21 09:30:42;;;;;;;36.83;16.95;;;;;;;13.83;61.05;98909.25;1708906;81;21307;-83
2023/12/21 09:33:55;;;;;;;42.88;16.93;;;;;;;13.90;60.96;98909.48;1707252;81;21802;-83
2023/12/21 09:37:06;;;;;;;38.60;17.65;;;;;;;13.53;61.84;98908.14;1702938;81;21251;-83
2023/12/21 09:40:16;;;;;;;42.33;18.10;;;;;;;13.87;61.13;98895.36;1710160;81;22183;-83
2023/12/21 09:43:27;;;;;;;56.92;23.38;;;;;;;14.39;59.53;98890.16;1699232;83;21311;-82
2023/12/21 09:46:38;;;;;;;37.10;16.70;;;;;;;14.63;58.61;98886.95;1707698;83;21279;-82
2023/12/21 09:49:44;;;;;;;42.75;17.62;;;;;;;14.31;59.96;98891.35;1709233;83;21287;-83
2023/12/21 09:52:51;;;;;;;37.25;16.90;;;;;;;14.09;60.33;98896.53;1713915;83;21320;-83
2023/12/21 09:56:03;;;;;;;42.65;16.42;;;;;;;13.83;61.48;98896.34;1715111;81;21216;-83
2023/12/21 09:59:16;;;;;;;29.82;14.25;;;;;;;13.48;62.82;98898.92;1712681;82;21299;-83
2023/12/21 10:02:31;;;;;;;36.33;14.18;;;;;;;13.56;62.68;98889.00;1695671;82;21934;-83
2023/12/21 10:05:40;;;;;;;33.78;14.15;;;;;;;13.50;62.68;98877.03;1700580;83;21283;-83
2023/12/21 10:08:48;;;;;;;43.13;18.62;;;;;;;13.82;61.96;98876.81;1699183;83;21307;-82
2023/12/21 10:11:53;;;;;;;46.98;17.98;;;;;;;13.88;62.19;98863.54;1705254;82;21309;-82
2023/12/21 10:15:06;;;;;;;40.83;17.95;;;;;;;14.22;61.35;98854.27;1697771;83;21825;-83
2023/12/21 10:18:16;;;;;;;44.00;17.37;;;;;;;14.43;60.63;98842.69;1677658;83;21893;-82
2023/12/21 10:21:23;;;;;;;46.05;17.90;;;;;;;14.54;59.78;98833.66;1708552;81;21306;-83
2023/12/21 10:24:32;;;;;;;41.80;20.45;;;;;;;14.55;59.51;98826.24;1708114;83;21362;-82
2023/12/21 10:27:40;;;;;;;54.30;21.50;;;;;;;14.45;59.47;98821.84;1706700;83;22577;-82
2023/12/21 10:30:52;;;;;;;39.35;18.12;;;;;;;14.23;60.03;98815.52;1711149;83;21315;-82
2023/12/21 10:34:09;;;;;;;39.45;15.60;;;;;;;14.26;60.10;98816.97;1713401;81;21895;-82
2023/12/21 10:37:26;;;;;;;40.52;17.37;;;;;;;14.04;60.67;98820.25;1713137;81;21286;-82
2023/12/21 10:40:40;;;;;;;47.45;19.12;;;;;;;13.81;61.51;98818.80;1710125;83;21369;-82
2023/12/21 10:43:53;;;;;;;36.03;17.25;;;;;;;13.98;61.09;98813.50;1709289;83;21341;-82
2023/12/21 10:47:12;;;;;;;44.05;18.48;;;;;;;14.42;59.73;98804.42;1710932;83;21339;-83
2023/12/21 10:50:28;;;;;;;39.40;18.25;;;;;;;14.30;59.78;98798.89;1719570;83;21280;-82
2023/12/21 10:53:36;;;;;;;46.30;18.65;;;;;;;13.83;61.06;98791.91;1714037;81;21283;-82
2023/12/21 10:56:48;;;;;;;41.48;18.30;;;;;;;13.74;61.48;98789.23;1695544;82;21865;-82
2023/12/21 10:59:53;;;;;;;48.87;18.00;;;;;;;13.65;61.61;98792.00;1694230;82;21291;-83
2023/12/21 11:03:00;;;;;;;47.60;19.00;;;;;;;13.73;61.62;98787.52;1709416;81;21279;-83
2023/12/21 11:06:16;;;;;;;45.65;18.42;;;;;;;13.12;62.99;98788.52;1693222;82;21255;-82
2023/12/21 11:09:25;;;;;;;49.03;20.08;;;;;;;13.16;63.42;98790.58;1727396;82;22359;-82
2023/12/21 11:12:31;;;;;;;45.92;19.17;;;;;;;13.49;62.53;98791.55;1716135;81;21826;-83
2023/12/21 11:15:34;;;;;;;54.95;22.15;;;;;;;13.45;62.76;98796.36;1716357;83;21291;-83
2023/12/21 11:18:44;;;;;;;52.33;22.50;;;;;;;13.48;62.95;98785.77;1714385;81;21280;-82
2023/12/21 11:21:53;;;;;;;54.53;21.57;;;;;;;13.22;63.76;98797.08;1716292;83;21276;-82
2023/12/21 11:25:16;;;;;;;58.05;23.02;;;;;;;13.22;64.10;98797.95;1718495;83;21275;-83
2023/12/21 11:28:38;;;;;;;53.68;21.87;;;;;;;13.14;64.81;98797.38;1720149;83;21259;-82
2023/12/21 11:31:50;;;;;;;53.73;22.35;;;;;;;13.15;64.61;98790.28;1710820;83;21279;-82
2023/12/21 11:35:00;;;;;;;55.15;23.55;;;;;;;13.67;63.08;98792.59;1715278;83;21172;-82
2023/12/21 11:38:27;;;;;;;57.90;22.40;;;;;;;13.53;63.00;98794.14;1713266;83;21785;-82
2023/12/21 11:41:42;;;;;;;59.38;23.50;;;;;;;13.69;62.67;98783.06;1710494;83;21286;-83
2023/12/21 11:44:56;;;;;;;54.10;23.27;;;;;;;13.62;62.86;98790.54;1711761;81;21287;-83
2023/12/21 11:48:06;;;;;;;60.10;24.23;;;;;;;13.66;62.69;98779.93;1696647;83;21291;-83
2023/12/21 11:51:18;;;;;;;60.08;24.00;;;;;;;13.71;63.09;98774.57;1714516;83;21850;-82
2023/12/21 11:54:31;;;;;;;60.20;24.40;;;;;;;13.42;63.75;98773.51;1723126;82;21307;-82
2023/12/21 11:57:41;;;;;;;51.18;22.77;;;;;;;13.41;63.93;98776.79;1698544;83;21316;-83
2023/12/21 12:00:53;;;;;;;54.70;24.55;;;;;;;13.70;63.30;98783.35;1698242;84;21264;-82
2023/12/21 12:04:03;;;;;;;70.75;26.62;;;;;;;13.71;63.35;98778.69;1702580;83;21272;-83
2023/12/21 12:07:13;;;;;;;67.42;25.48;;;;;;;13.72;63.19;98767.45;1700365;83;21283;-82
2023/12/21 12:10:22;;;;;;;65.00;24.23;;;;;;;13.88;62.67;98781.59;1699141;83;21315;-83
2023/12/21 12:13:29;;;;;;;64.40;25.12;;;;;;;13.76;62.48;98778.28;1691917;84;21299;-82
2023/12/21 12:16:38;;;;;;;60.65;23.87;;;;;;;14.03;61.49;98781.47;1710517;83;21346;-82
2023/12/21 12:19:35;;;;;;;57.93;24.67;;;;;;;13.72;62.55;98781.20;1715928;83;21294;-82
2023/12/21 12:22:43;;;;;;;64.47;24.05;;;;;;;13.57;63.53;98781.33;1727309;82;21268;-83
2023/12/21 12:25:52;;;;;;;75.97;28.07;;;;;;;13.58;63.26;98778.88;1701538;83;21374;-83
2023/12/21 12:28:59;;;;;;;50.27;20.03;;;;;;;13.53;63.59;98783.16;1706760;83;21263;-82
2023/12/21 12:32:10;;;;;;;48.30;23.30;;;;;;;13.68;63.28;98775.03;1700433;83;22080;-82
2023/12/21 12:35:20;;;;;;;62.40;26.25;;;;;;;13.46;63.76;98776.93;1700547;83;21287;-82
2023/12/21 12:38:29;;;;;;;53.85;25.72;;;;;;;13.19;64.42;98765.95;1702103;83;21326;-82
2023/12/21 12:41:35;;;;;;;58.13;25.27;;;;;;;13.08;65.14;98776.31;1684013;84;21270;-83
2023/12/21 12:44:43;;;;;;;60.88;25.08;;;;;;;13.12;65.09;98783.03;1701062;83;21260;-82
2023/12/21 12:47:55;;;;;;;53.52;23.67;;;;;;;13.22;64.83;98781.98;1701179;83;22244;-82
2023/12/21 12:51:11;;;;;;;52.25;23.87;;;;;;;13.35;64.57;98796.08;1727519;82;21275;-83
2023/12/21 12:54:16;;;;;;;40.03;20.00;;;;;;;13.27;64.71;98795.88;1713381;82;21245;-83
2023/12/21 12:57:23;;;;;;;63.13;24.67;;;;;;;12.94;65.34;98799.83;1737631;82;21307;-82
2023/12/21 13:00:29;;;;;;;56.45;24.05;;;;;;;13.19;64.56;98787.92;1706226;83;21817;-82
2023/12/21 13:03:43;;;;;;;46.08;22.98;;;;;;;13.19;64.38;98790.13;1714844;82;21182;-82
2023/12/21 13:06:51;;;;;;;57.10;23.20;;;;;;;13.09;64.47;98791.74;1698824;83;21291;-82
2023/12/21 13:09:57;;;;;;;51.50;24.02;;;;;;;13.43;63.86;98791.66;1720227;82;21259;-82
2023/12/21 13:13:06;;;;;;;57.95;24.65;;;;;;;13.56;63.27;98796.97;1699052;83;21302;-82
2023/12/21 13:20:20;;;;;;;71.60;25.30;;;;;;;13.47;63.97;98778.59;1727676;82;21152;-82
2023/12/21 13:27:43;;;;;;;63.65;25.95;;;;;;;13.42;64.19;98789.45;1723439;82;21354;-83
2023/12/21 13:30:51;;;;;;;63.55;27.60;;;;;;;13.25;64.94;98780.98;1721552;82;21272;-82
2023/12/21 13:33:58;;;;;;;65.87;26.60;;;;;;;13.34;64.54;98782.89;1717563;83;21816;-83
2023/12/21 13:37:05;;;;;;;69.42;29.15;;;;;;;13.41;64.40;98793.27;1717991;83;21283;-82
2023/12/21 13:40:13;;;;;;;88.33;28.83;;;;;;;13.34;64.62;98796.63;1725748;83;21295;-82
2023/12/21 13:43:19;;;;;;;63.52;27.50;;;;;;;13.51;64.44;98800.95;1712100;81;21886;-83
2023/12/21 13:46:25;;;;;;;64.30;28.32;;;;;;;13.13;65.34;98795.17;1725814;83;21279;-82
2023/12/21 13:49:32;;;;;;;59.42;25.72;;;;;;;13.46;64.58;98799.44;1721342;83;21275;-83
2023/12/21 13:52:38;;;;;;;71.42;28.40;;;;;;;13.33;64.84;98800.44;1710424;81;21292;-82
2023/12/21 13:55:46;;;;;;;59.58;27.37;;;;;;;13.35;64.70;98790.05;1697369;83;21303;-83
2023/12/21 13:58:53;;;;;;;79.53;28.32;;;;;;;13.42;64.46;98792.73;1727609;82;21970;-82
2023/12/21 14:01:59;;;;;;;53.90;26.37;;;;;;;13.07;65.86;98783.72;1705451;83;21307;-82
2023/12/21 14:05:05;;;;;;;66.60;26.37;;;;;;;13.43;64.76;98807.59;1716555;82;21855;-82
2023/12/21 14:08:12;;;;;;;59.98;28.38;;;;;;;13.63;63.83;98799.08;1725775;83;21362;-82
2023/12/21 14:11:17;;;;;;;72.70;29.48;;;;;;;13.34;64.41;98805.39;1726911;83;21328;-83
2023/12/21 14:14:23;;;;;;;63.45;29.80;;;;;;;13.32;64.60;98801.52;1726965;83;21371;-82
2023/12/21 14:17:29;;;;;;;88.82;31.35;;;;;;;13.95;63.20;98796.92;1727395;83;21338;-83
2023/12/21 14:20:35;;;;;;;96.28;29.10;;;;;;;13.21;64.70;98786.60;1709526;83;21897;-83
2023/12/21 14:23:40;;;;;;;64.25;27.40;;;;;;;12.95;66.21;98786.41;1717731;83;21283;-82
2023/12/21 14:26:47;;;;;;;66.85;28.60;;;;;;;12.95;66.22;98788.31;1726536;83;21338;-82
2023/12/21 14:29:52;;;;;;;57.67;27.62;;;;;;;12.98;66.29;98783.72;1726486;83;21332;-83
2023/12/21 14:32:58;;;;;;;61.13;28.12;;;;;;;12.82;66.75;98782.43;1726688;83;21274;-82
2023/12/21 14:36:04;;;;;;;69.77;29.65;;;;;;;13.12;66.26;98788.52;1722657;83;21351;-82